sensor_id;sensor_type;location;lat;lon;timestamp;P1;P2;P0
74880;PMS5003;63427;49.654;6.596;2022-09-21T00:01:03;5;5;
74880;PMS5003;63427;49.654;6.596;2022-09-21T00:03:28;3;3;
74880;PMS5003;63427;49.654;6.596;2022-09-21T00:10:49;4;4;
74880;PMS5003;63427;49.654;6.596;2022-09-21T00:13:11;5;5;
74880;PMS5003;63427;49.654;6.596;2022-09-21T00:18:02;5;5;
74880;PMS5003;63427;49.654;6.596;2022-09-21T00:20:39;5;5;
74880;PMS5003;63427;49.654;6.596;2022-09-21T00:22:54;4;4;
74880;PMS5003;63427;49.654;6.596;2022-09-21T00:25:20;5;5;
74880;PMS5003;63427;49.654;6.596;2022-09-21T00:35:03;5;5;
74880;PMS5003;63427;49.654;6.596;2022-09-21T00:37:28;4;4;
74880;PMS5003;63427;49.654;6.596;2022-09-21T00:39:54;5;5;
74880;PMS5003;63427;49.654;6.596;2022-09-21T00:42:20;6;6;
74880;PMS5003;63427;49.654;6.596;2022-09-21T00:44:45;4;4;
74880;PMS5003;63427;49.654;6.596;2022-09-21T00:49:36;5;5;
74880;PMS5003;63427;49.654;6.596;2022-09-21T00:52:02;4;3;
74880;PMS5003;63427;49.654;6.596;2022-09-21T00:54:28;7;6;
74880;PMS5003;63427;49.654;6.596;2022-09-21T00:56:53;5;5;
74880;PMS5003;63427;49.654;6.596;2022-09-21T00:59:19;3;3;
74880;PMS5003;63427;49.654;6.596;2022-09-21T01:01:45;5;5;
74880;PMS5003;63427;49.654;6.596;2022-09-21T01:04:10;5;5;
74880;PMS5003;63427;49.654;6.596;2022-09-21T01:06:36;5;5;
74880;PMS5003;63427;49.654;6.596;2022-09-21T01:09:02;5;5;
74880;PMS5003;63427;49.654;6.596;2022-09-21T01:11:29;4;4;
74880;PMS5003;63427;49.654;6.596;2022-09-21T01:16:19;4;4;
74880;PMS5003;63427;49.654;6.596;2022-09-21T01:18:45;4;4;
74880;PMS5003;63427;49.654;6.596;2022-09-21T01:26:03;3;3;
74880;PMS5003;63427;49.654;6.596;2022-09-21T01:28:28;4;4;
74880;PMS5003;63427;49.654;6.596;2022-09-21T01:30:53;4;4;
74880;PMS5003;63427;49.654;6.596;2022-09-21T01:33:20;5;5;
74880;PMS5003;63427;49.654;6.596;2022-09-21T01:35:45;4;4;
74880;PMS5003;63427;49.654;6.596;2022-09-21T01:38:11;5;5;
74880;PMS5003;63427;49.654;6.596;2022-09-21T01:40:38;4;4;
74880;PMS5003;63427;49.654;6.596;2022-09-21T01:43:02;4;4;
74880;PMS5003;63427;49.654;6.596;2022-09-21T01:45:28;5;5;
74880;PMS5003;63427;49.654;6.596;2022-09-21T01:47:53;5;5;
74880;PMS5003;63427;49.654;6.596;2022-09-21T01:50:20;4;4;
74880;PMS5003;63427;49.654;6.596;2022-09-21T01:52:45;4;4;
74880;PMS5003;63427;49.654;6.596;2022-09-21T01:55:11;5;5;
74880;PMS5003;63427;49.654;6.596;2022-09-21T01:57:37;6;6;
74880;PMS5003;63427;49.654;6.596;2022-09-21T02:00:02;4;4;
74880;PMS5003;63427;49.654;6.596;2022-09-21T02:02:29;5;5;
74880;PMS5003;63427;49.654;6.596;2022-09-21T02:04:53;5;4;
74880;PMS5003;63427;49.654;6.596;2022-09-21T02:07:18;4;4;
74880;PMS5003;63427;49.654;6.596;2022-09-21T02:09:43;3;3;
74880;PMS5003;63427;49.654;6.596;2022-09-21T02:12:09;6;6;
74880;PMS5003;63427;49.654;6.596;2022-09-21T02:14:35;6;5;
74880;PMS5003;63427;49.654;6.596;2022-09-21T02:17:03;5;4;
74880;PMS5003;63427;49.654;6.596;2022-09-21T02:19:28;5;5;
74880;PMS5003;63427;49.654;6.596;2022-09-21T02:24:20;5;5;
74880;PMS5003;63427;49.654;6.596;2022-09-21T02:26:44;5;5;
74880;PMS5003;63427;49.654;6.596;2022-09-21T02:29:16;6;6;
74880;PMS5003;63427;49.654;6.596;2022-09-21T02:31:35;7;7;
74880;PMS5003;63427;49.654;6.596;2022-09-21T02:34:01;7;7;
74880;PMS5003;63427;49.654;6.596;2022-09-21T02:36:27;7;6;
74880;PMS5003;63427;49.654;6.596;2022-09-21T02:38:52;7;7;
74880;PMS5003;63427;49.654;6.596;2022-09-21T02:41:19;7;7;
74880;PMS5003;63427;49.654;6.596;2022-09-21T02:43:43;6;6;
74880;PMS5003;63427;49.654;6.596;2022-09-21T02:46:10;4;4;
74880;PMS5003;63427;49.654;6.596;2022-09-21T02:48:35;6;6;
74880;PMS5003;63427;49.654;6.596;2022-09-21T02:51:02;7;7;
74880;PMS5003;63427;49.654;6.596;2022-09-21T02:53:29;7;6;
74880;PMS5003;63427;49.654;6.596;2022-09-21T02:55:52;5;5;
74880;PMS5003;63427;49.654;6.596;2022-09-21T02:58:17;5;5;
74880;PMS5003;63427;49.654;6.596;2022-09-21T03:00:43;6;6;
74880;PMS5003;63427;49.654;6.596;2022-09-21T03:05:34;6;6;
74880;PMS5003;63427;49.654;6.596;2022-09-21T03:08:00;5;5;
74880;PMS5003;63427;49.654;6.596;2022-09-21T03:10:25;6;5;
74880;PMS5003;63427;49.654;6.596;2022-09-21T03:12:55;6;6;
74880;PMS5003;63427;49.654;6.596;2022-09-21T03:17:43;11;11;
74880;PMS5003;63427;49.654;6.596;2022-09-21T03:20:08;8;8;
74880;PMS5003;63427;49.654;6.596;2022-09-21T03:22:34;10;10;
74880;PMS5003;63427;49.654;6.596;2022-09-21T03:25:00;10;10;
74880;PMS5003;63427;49.654;6.596;2022-09-21T03:27:25;9;8;
74880;PMS5003;63427;49.654;6.596;2022-09-21T03:29:56;10;10;
74880;PMS5003;63427;49.654;6.596;2022-09-21T03:32:16;7;7;
74880;PMS5003;63427;49.654;6.596;2022-09-21T03:34:42;6;6;
74880;PMS5003;63427;49.654;6.596;2022-09-21T03:37:09;8;8;
74880;PMS5003;63427;49.654;6.596;2022-09-21T03:39:33;7;7;
74880;PMS5003;63427;49.654;6.596;2022-09-21T03:44:31;6;6;
74880;PMS5003;63427;49.654;6.596;2022-09-21T03:49:16;7;6;
74880;PMS5003;63427;49.654;6.596;2022-09-21T03:51:45;8;8;
74880;PMS5003;63427;49.654;6.596;2022-09-21T03:54:08;14;12;
74880;PMS5003;63427;49.654;6.596;2022-09-21T03:56:33;10;9;
74880;PMS5003;63427;49.654;6.596;2022-09-21T03:58:58;9;9;
74880;PMS5003;63427;49.654;6.596;2022-09-21T04:01:24;12;11;
74880;PMS5003;63427;49.654;6.596;2022-09-21T04:03:50;9;9;
74880;PMS5003;63427;49.654;6.596;2022-09-21T04:06:15;7;7;
74880;PMS5003;63427;49.654;6.596;2022-09-21T04:08:41;9;9;
74880;PMS5003;63427;49.654;6.596;2022-09-21T04:11:08;12;12;
74880;PMS5003;63427;49.654;6.596;2022-09-21T04:13:32;11;11;
74880;PMS5003;63427;49.654;6.596;2022-09-21T04:15:58;9;8;
74880;PMS5003;63427;49.654;6.596;2022-09-21T04:21:01;14;13;
74880;PMS5003;63427;49.654;6.596;2022-09-21T04:23:20;9;9;
74880;PMS5003;63427;49.654;6.596;2022-09-21T04:25:41;8;8;
74880;PMS5003;63427;49.654;6.596;2022-09-21T04:28:07;10;10;
74880;PMS5003;63427;49.654;6.596;2022-09-21T04:30:32;9;9;
74880;PMS5003;63427;49.654;6.596;2022-09-21T04:32:59;8;8;
74880;PMS5003;63427;49.654;6.596;2022-09-21T04:37:49;7;7;
74880;PMS5003;63427;49.654;6.596;2022-09-21T04:40:15;6;5;
74880;PMS5003;63427;49.654;6.596;2022-09-21T04:47:32;6;5;
74880;PMS5003;63427;49.654;6.596;2022-09-21T04:49:57;7;7;
74880;PMS5003;63427;49.654;6.596;2022-09-21T04:52:24;6;5;
74880;PMS5003;63427;49.654;6.596;2022-09-21T04:54:55;5;5;
74880;PMS5003;63427;49.654;6.596;2022-09-21T04:57:14;5;5;
74880;PMS5003;63427;49.654;6.596;2022-09-21T05:02:05;5;5;
74880;PMS5003;63427;49.654;6.596;2022-09-21T05:04:36;5;5;
74880;PMS5003;63427;49.654;6.596;2022-09-21T05:06:58;6;6;
74880;PMS5003;63427;49.654;6.596;2022-09-21T05:09:22;8;7;
74880;PMS5003;63427;49.654;6.596;2022-09-21T05:11:53;6;6;
74880;PMS5003;63427;49.654;6.596;2022-09-21T05:14:14;6;6;
74880;PMS5003;63427;49.654;6.596;2022-09-21T05:16:39;6;6;
74880;PMS5003;63427;49.654;6.596;2022-09-21T05:19:07;6;5;
74880;PMS5003;63427;49.654;6.596;2022-09-21T05:23:57;4;4;
74880;PMS5003;63427;49.654;6.596;2022-09-21T05:26:22;5;5;
74880;PMS5003;63427;49.654;6.596;2022-09-21T05:28:48;5;5;
74880;PMS5003;63427;49.654;6.596;2022-09-21T05:31:18;6;5;
74880;PMS5003;63427;49.654;6.596;2022-09-21T05:33:40;4;4;
74880;PMS5003;63427;49.654;6.596;2022-09-21T05:36:07;7;6;
74880;PMS5003;63427;49.654;6.596;2022-09-21T05:38:39;5;5;
74880;PMS5003;63427;49.654;6.596;2022-09-21T05:40:56;7;7;
74880;PMS5003;63427;49.654;6.596;2022-09-21T05:43:22;8;8;
74880;PMS5003;63427;49.654;6.596;2022-09-21T05:45:50;6;6;
74880;PMS5003;63427;49.654;6.596;2022-09-21T05:48:16;6;6;
74880;PMS5003;63427;49.654;6.596;2022-09-21T05:55:32;7;6;
74880;PMS5003;63427;49.654;6.596;2022-09-21T05:57:58;7;7;
74880;PMS5003;63427;49.654;6.596;2022-09-21T06:00:22;7;7;
74880;PMS5003;63427;49.654;6.596;2022-09-21T06:03:03;8;8;
74880;PMS5003;63427;49.654;6.596;2022-09-21T06:05:13;9;9;
74880;PMS5003;63427;49.654;6.596;2022-09-21T06:07:39;7;6;
74880;PMS5003;63427;49.654;6.596;2022-09-21T06:10:05;8;8;
74880;PMS5003;63427;49.654;6.596;2022-09-21T06:12:31;6;6;
74880;PMS5003;63427;49.654;6.596;2022-09-21T06:14:56;8;8;
74880;PMS5003;63427;49.654;6.596;2022-09-21T06:17:21;8;8;
74880;PMS5003;63427;49.654;6.596;2022-09-21T06:19:47;7;7;
74880;PMS5003;63427;49.654;6.596;2022-09-21T06:22:12;6;6;
74880;PMS5003;63427;49.654;6.596;2022-09-21T06:24:38;6;5;
74880;PMS5003;63427;49.654;6.596;2022-09-21T06:27:03;6;6;
74880;PMS5003;63427;49.654;6.596;2022-09-21T06:29:29;7;7;
74880;PMS5003;63427;49.654;6.596;2022-09-21T06:32:02;6;6;
74880;PMS5003;63427;49.654;6.596;2022-09-21T06:34:21;6;5;
74880;PMS5003;63427;49.654;6.596;2022-09-21T06:36:46;9;8;
74880;PMS5003;63427;49.654;6.596;2022-09-21T06:39:12;5;5;
74880;PMS5003;63427;49.654;6.596;2022-09-21T06:41:39;4;4;
74880;PMS5003;63427;49.654;6.596;2022-09-21T06:44:06;6;6;
74880;PMS5003;63427;49.654;6.596;2022-09-21T06:46:39;4;4;
74880;PMS5003;63427;49.654;6.596;2022-09-21T06:48:55;7;6;
74880;PMS5003;63427;49.654;6.596;2022-09-21T06:51:20;5;5;
74880;PMS5003;63427;49.654;6.596;2022-09-21T06:53:53;5;5;
74880;PMS5003;63427;49.654;6.596;2022-09-21T06:56:11;6;6;
74880;PMS5003;63427;49.654;6.596;2022-09-21T06:58:37;5;5;
74880;PMS5003;63427;49.654;6.596;2022-09-21T07:01:05;8;5;
74880;PMS5003;63427;49.654;6.596;2022-09-21T07:03:28;7;7;
74880;PMS5003;63427;49.654;6.596;2022-09-21T07:05:53;5;4;
74880;PMS5003;63427;49.654;6.596;2022-09-21T07:08:19;6;6;
74880;PMS5003;63427;49.654;6.596;2022-09-21T07:10:47;8;8;
74880;PMS5003;63427;49.654;6.596;2022-09-21T07:13:10;5;5;
74880;PMS5003;63427;49.654;6.596;2022-09-21T07:15:36;6;6;
74880;PMS5003;63427;49.654;6.596;2022-09-21T07:20:27;7;7;
74880;PMS5003;63427;49.654;6.596;2022-09-21T07:22:52;6;6;
74880;PMS5003;63427;49.654;6.596;2022-09-21T07:25:19;6;6;
74880;PMS5003;63427;49.654;6.596;2022-09-21T07:27:43;10;10;
74880;PMS5003;63427;49.654;6.596;2022-09-21T07:30:09;6;6;
74880;PMS5003;63427;49.654;6.596;2022-09-21T07:32:35;10;8;
74880;PMS5003;63427;49.654;6.596;2022-09-21T07:35:00;7;7;
74880;PMS5003;63427;49.654;6.596;2022-09-21T07:37:27;6;6;
74880;PMS5003;63427;49.654;6.596;2022-09-21T07:39:51;8;8;
74880;PMS5003;63427;49.654;6.596;2022-09-21T07:42:17;9;9;
74880;PMS5003;63427;49.654;6.596;2022-09-21T07:44:42;8;7;
74880;PMS5003;63427;49.654;6.596;2022-09-21T07:47:08;8;8;
74880;PMS5003;63427;49.654;6.596;2022-09-21T07:49:33;11;10;
74880;PMS5003;63427;49.654;6.596;2022-09-21T07:51:58;9;9;
74880;PMS5003;63427;49.654;6.596;2022-09-21T07:54:24;9;9;
74880;PMS5003;63427;49.654;6.596;2022-09-21T07:56:49;11;10;
74880;PMS5003;63427;49.654;6.596;2022-09-21T07:59:15;15;15;
74880;PMS5003;63427;49.654;6.596;2022-09-21T08:01:40;10;10;
74880;PMS5003;63427;49.654;6.596;2022-09-21T08:04:06;13;11;
74880;PMS5003;63427;49.654;6.596;2022-09-21T08:06:31;7;6;
74880;PMS5003;63427;49.654;6.596;2022-09-21T08:08:56;9;9;
74880;PMS5003;63427;49.654;6.596;2022-09-21T08:11:21;8;8;
74880;PMS5003;63427;49.654;6.596;2022-09-21T08:13:47;9;8;
74880;PMS5003;63427;49.654;6.596;2022-09-21T08:16:13;7;7;
74880;PMS5003;63427;49.654;6.596;2022-09-21T08:18:39;7;7;
74880;PMS5003;63427;49.654;6.596;2022-09-21T08:21:03;11;10;
74880;PMS5003;63427;49.654;6.596;2022-09-21T08:23:29;10;10;
74880;PMS5003;63427;49.654;6.596;2022-09-21T08:25:57;10;10;
74880;PMS5003;63427;49.654;6.596;2022-09-21T08:28:20;12;12;
74880;PMS5003;63427;49.654;6.596;2022-09-21T08:30:45;6;6;
74880;PMS5003;63427;49.654;6.596;2022-09-21T08:33:11;8;8;
74880;PMS5003;63427;49.654;6.596;2022-09-21T08:35:36;11;10;
74880;PMS5003;63427;49.654;6.596;2022-09-21T08:38:02;11;10;
74880;PMS5003;63427;49.654;6.596;2022-09-21T08:40:27;11;11;
74880;PMS5003;63427;49.654;6.596;2022-09-21T08:42:56;10;10;
74880;PMS5003;63427;49.654;6.596;2022-09-21T08:45:18;10;10;
74880;PMS5003;63427;49.654;6.596;2022-09-21T08:47:44;10;10;
74880;PMS5003;63427;49.654;6.596;2022-09-21T08:50:22;13;12;
74880;PMS5003;63427;49.654;6.596;2022-09-21T08:52:35;10;10;
74880;PMS5003;63427;49.654;6.596;2022-09-21T08:55:01;9;9;
74880;PMS5003;63427;49.654;6.596;2022-09-21T08:57:27;11;10;
74880;PMS5003;63427;49.654;6.596;2022-09-21T08:59:50;12;12;
74880;PMS5003;63427;49.654;6.596;2022-09-21T09:02:36;10;10;
74880;PMS5003;63427;49.654;6.596;2022-09-21T09:04:46;8;8;
74880;PMS5003;63427;49.654;6.596;2022-09-21T09:07:10;10;10;
74880;PMS5003;63427;49.654;6.596;2022-09-21T09:12:01;13;13;
74880;PMS5003;63427;49.654;6.596;2022-09-21T09:14:27;8;8;
74880;PMS5003;63427;49.654;6.596;2022-09-21T09:19:18;13;13;
74880;PMS5003;63427;49.654;6.596;2022-09-21T09:21:39;15;15;
74880;PMS5003;63427;49.654;6.596;2022-09-21T09:24:05;11;11;
74880;PMS5003;63427;49.654;6.596;2022-09-21T09:26:31;12;12;
74880;PMS5003;63427;49.654;6.596;2022-09-21T09:28:56;13;13;
74880;PMS5003;63427;49.654;6.596;2022-09-21T09:31:21;14;14;
74880;PMS5003;63427;49.654;6.596;2022-09-21T09:33:47;13;13;
74880;PMS5003;63427;49.654;6.596;2022-09-21T09:36:11;15;15;
74880;PMS5003;63427;49.654;6.596;2022-09-21T09:38:36;13;13;
74880;PMS5003;63427;49.654;6.596;2022-09-21T09:41:07;13;12;
74880;PMS5003;63427;49.654;6.596;2022-09-21T09:43:31;12;12;
74880;PMS5003;63427;49.654;6.596;2022-09-21T09:50:42;12;12;
74880;PMS5003;63427;49.654;6.596;2022-09-21T09:53:08;11;10;
74880;PMS5003;63427;49.654;6.596;2022-09-21T09:55:35;10;9;
74880;PMS5003;63427;49.654;6.596;2022-09-21T09:57:58;11;11;
74880;PMS5003;63427;49.654;6.596;2022-09-21T10:00:23;11;11;
74880;PMS5003;63427;49.654;6.596;2022-09-21T10:02:49;11;11;
74880;PMS5003;63427;49.654;6.596;2022-09-21T10:07:39;10;10;
74880;PMS5003;63427;49.654;6.596;2022-09-21T10:12:29;9;9;
74880;PMS5003;63427;49.654;6.596;2022-09-21T10:14:55;9;9;
74880;PMS5003;63427;49.654;6.596;2022-09-21T10:17:19;9;9;
74880;PMS5003;63427;49.654;6.596;2022-09-21T10:19:44;10;9;
74880;PMS5003;63427;49.654;6.596;2022-09-21T10:22:13;10;9;
74880;PMS5003;63427;49.654;6.596;2022-09-21T10:24:35;10;9;
74880;PMS5003;63427;49.654;6.596;2022-09-21T10:27:02;8;8;
74880;PMS5003;63427;49.654;6.596;2022-09-21T10:29:29;9;9;
74880;PMS5003;63427;49.654;6.596;2022-09-21T10:34:15;10;10;
74880;PMS5003;63427;49.654;6.596;2022-09-21T10:39:20;7;7;
74880;PMS5003;63427;49.654;6.596;2022-09-21T10:41:31;7;7;
74880;PMS5003;63427;49.654;6.596;2022-09-21T10:43:57;10;9;
74880;PMS5003;63427;49.654;6.596;2022-09-21T10:46:31;8;8;
74880;PMS5003;63427;49.654;6.596;2022-09-21T10:48:49;10;10;
74880;PMS5003;63427;49.654;6.596;2022-09-21T10:51:20;6;6;
74880;PMS5003;63427;49.654;6.596;2022-09-21T10:56:07;8;8;
74880;PMS5003;63427;49.654;6.596;2022-09-21T10:58:33;8;7;
74880;PMS5003;63427;49.654;6.596;2022-09-21T11:03:27;8;8;
74880;PMS5003;63427;49.654;6.596;2022-09-21T11:05:50;7;6;
74880;PMS5003;63427;49.654;6.596;2022-09-21T11:08:17;9;8;
74880;PMS5003;63427;49.654;6.596;2022-09-21T11:10:42;6;6;
74880;PMS5003;63427;49.654;6.596;2022-09-21T11:13:24;9;9;
74880;PMS5003;63427;49.654;6.596;2022-09-21T11:15:38;11;10;
74880;PMS5003;63427;49.654;6.596;2022-09-21T11:18:01;5;5;
74880;PMS5003;63427;49.654;6.596;2022-09-21T11:22:53;9;8;
74880;PMS5003;63427;49.654;6.596;2022-09-21T11:27:43;5;5;
74880;PMS5003;63427;49.654;6.596;2022-09-21T11:30:09;4;4;
74880;PMS5003;63427;49.654;6.596;2022-09-21T11:39:55;3;3;
74880;PMS5003;63427;49.654;6.596;2022-09-21T11:42:20;7;6;
74880;PMS5003;63427;49.654;6.596;2022-09-21T11:47:12;5;5;
74880;PMS5003;63427;49.654;6.596;2022-09-21T11:56:51;4;4;
74880;PMS5003;63427;49.654;6.596;2022-09-21T11:59:23;3;3;
74880;PMS5003;63427;49.654;6.596;2022-09-21T12:06:37;2;2;
74880;PMS5003;63427;49.654;6.596;2022-09-21T12:09:05;3;3;
74880;PMS5003;63427;49.654;6.596;2022-09-21T12:13:51;3;3;
74880;PMS5003;63427;49.654;6.596;2022-09-21T12:16:20;3;3;
74880;PMS5003;63427;49.654;6.596;2022-09-21T12:18:43;2;2;
74880;PMS5003;63427;49.654;6.596;2022-09-21T12:21:09;2;2;
74880;PMS5003;63427;49.654;6.596;2022-09-21T12:23:37;1;1;
74880;PMS5003;63427;49.654;6.596;2022-09-21T12:25:59;2;1;
74880;PMS5003;63427;49.654;6.596;2022-09-21T12:28:26;1;1;
74880;PMS5003;63427;49.654;6.596;2022-09-21T12:30:52;2;2;
74880;PMS5003;63427;49.654;6.596;2022-09-21T12:35:44;2;2;
74880;PMS5003;63427;49.654;6.596;2022-09-21T12:38:09;2;2;
74880;PMS5003;63427;49.654;6.596;2022-09-21T12:40:36;1;1;
74880;PMS5003;63427;49.654;6.596;2022-09-21T12:43:00;2;2;
74880;PMS5003;63427;49.654;6.596;2022-09-21T12:45:25;0;0;
74880;PMS5003;63427;49.654;6.596;2022-09-21T12:50:18;1;1;
74880;PMS5003;63427;49.654;6.596;2022-09-21T12:52:41;1;1;
74880;PMS5003;63427;49.654;6.596;2022-09-21T12:55:12;1;1;
74880;PMS5003;63427;49.654;6.596;2022-09-21T12:57:44;1;1;
74880;PMS5003;63427;49.654;6.596;2022-09-21T13:00:07;1;1;
74880;PMS5003;63427;49.654;6.596;2022-09-21T13:02:28;0;0;
74880;PMS5003;63427;49.654;6.596;2022-09-21T13:04:54;1;1;
74880;PMS5003;63427;49.654;6.596;2022-09-21T13:07:23;0;0;
74880;PMS5003;63427;49.654;6.596;2022-09-21T13:09:42;1;1;
74880;PMS5003;63427;49.654;6.596;2022-09-21T13:12:09;0;0;
74880;PMS5003;63427;49.654;6.596;2022-09-21T13:14:33;0;0;
74880;PMS5003;63427;49.654;6.596;2022-09-21T13:16:59;2;1;
74880;PMS5003;63427;49.654;6.596;2022-09-21T13:19:25;2;2;
74880;PMS5003;63427;49.654;6.596;2022-09-21T13:26:42;2;2;
74880;PMS5003;63427;49.654;6.596;2022-09-21T13:38:56;0;0;
74880;PMS5003;63427;49.654;6.596;2022-09-21T13:41:23;1;1;
74880;PMS5003;63427;49.654;6.596;2022-09-21T13:43:45;0;0;
74880;PMS5003;63427;49.654;6.596;2022-09-21T13:46:06;0;0;
74880;PMS5003;63427;49.654;6.596;2022-09-21T13:48:32;0;0;
74880;PMS5003;63427;49.654;6.596;2022-09-21T13:53:23;0;0;
74880;PMS5003;63427;49.654;6.596;2022-09-21T13:55:49;0;0;
74880;PMS5003;63427;49.654;6.596;2022-09-21T13:58:17;0;0;
74880;PMS5003;63427;49.654;6.596;2022-09-21T14:00:40;0;0;
74880;PMS5003;63427;49.654;6.596;2022-09-21T14:03:06;0;0;
74880;PMS5003;63427;49.654;6.596;2022-09-21T14:05:33;0;0;
74880;PMS5003;63427;49.654;6.596;2022-09-21T14:07:57;0;0;
74880;PMS5003;63427;49.654;6.596;2022-09-21T14:10:22;1;1;
74880;PMS5003;63427;49.654;6.596;2022-09-21T14:12:48;0;0;
74880;PMS5003;63427;49.654;6.596;2022-09-21T14:17:39;0;0;
74880;PMS5003;63427;49.654;6.596;2022-09-21T14:22:35;0;0;
74880;PMS5003;63427;49.654;6.596;2022-09-21T14:27:22;3;3;
74880;PMS5003;63427;49.654;6.596;2022-09-21T14:34:38;0;0;
74880;PMS5003;63427;49.654;6.596;2022-09-21T14:39:41;0;0;
74880;PMS5003;63427;49.654;6.596;2022-09-21T14:41:55;0;0;
74880;PMS5003;63427;49.654;6.596;2022-09-21T14:44:21;0;0;
74880;PMS5003;63427;49.654;6.596;2022-09-21T14:46:51;0;0;
74880;PMS5003;63427;49.654;6.596;2022-09-21T14:49:16;0;0;
74880;PMS5003;63427;49.654;6.596;2022-09-21T14:51:39;1;0;
74880;PMS5003;63427;49.654;6.596;2022-09-21T14:56:33;0;0;
74880;PMS5003;63427;49.654;6.596;2022-09-21T14:58:59;0;0;
74880;PMS5003;63427;49.654;6.596;2022-09-21T15:01:24;1;1;
74880;PMS5003;63427;49.654;6.596;2022-09-21T15:03:50;1;1;
74880;PMS5003;63427;49.654;6.596;2022-09-21T15:06:15;1;1;
74880;PMS5003;63427;49.654;6.596;2022-09-21T15:08:41;2;1;
74880;PMS5003;63427;49.654;6.596;2022-09-21T15:11:04;4;4;
74880;PMS5003;63427;49.654;6.596;2022-09-21T15:13:35;3;3;
74880;PMS5003;63427;49.654;6.596;2022-09-21T15:16:01;1;1;
74880;PMS5003;63427;49.654;6.596;2022-09-21T15:18:20;2;2;
74880;PMS5003;63427;49.654;6.596;2022-09-21T15:25:36;0;0;
74880;PMS5003;63427;49.654;6.596;2022-09-21T15:28:02;1;1;
74880;PMS5003;63427;49.654;6.596;2022-09-21T15:30:39;1;1;
74880;PMS5003;63427;49.654;6.596;2022-09-21T15:35:19;1;1;
74880;PMS5003;63427;49.654;6.596;2022-09-21T15:37:45;1;0;
74880;PMS5003;63427;49.654;6.596;2022-09-21T15:42:37;2;2;
74880;PMS5003;63427;49.654;6.596;2022-09-21T15:47:27;1;1;
74880;PMS5003;63427;49.654;6.596;2022-09-21T15:49:53;3;3;
74880;PMS5003;63427;49.654;6.596;2022-09-21T15:52:28;3;3;
74880;PMS5003;63427;49.654;6.596;2022-09-21T15:54:45;8;8;
74880;PMS5003;63427;49.654;6.596;2022-09-21T15:57:32;50;49;
74880;PMS5003;63427;49.654;6.596;2022-09-21T15:59:35;2;2;
74880;PMS5003;63427;49.654;6.596;2022-09-21T16:02:08;2;2;
74880;PMS5003;63427;49.654;6.596;2022-09-21T16:04:27;2;2;
74880;PMS5003;63427;49.654;6.596;2022-09-21T16:07:03;1;1;
74880;PMS5003;63427;49.654;6.596;2022-09-21T16:11:44;1;1;
74880;PMS5003;63427;49.654;6.596;2022-09-21T16:14:10;1;1;
74880;PMS5003;63427;49.654;6.596;2022-09-21T16:19:01;1;1;
74880;PMS5003;63427;49.654;6.596;2022-09-21T16:21:27;1;1;
74880;PMS5003;63427;49.654;6.596;2022-09-21T16:23:54;1;1;
74880;PMS5003;63427;49.654;6.596;2022-09-21T16:26:24;1;1;
74880;PMS5003;63427;49.654;6.596;2022-09-21T16:28:44;2;2;
74880;PMS5003;63427;49.654;6.596;2022-09-21T16:33:36;2;2;
74880;PMS5003;63427;49.654;6.596;2022-09-21T16:36:02;2;2;
74880;PMS5003;63427;49.654;6.596;2022-09-21T16:38:27;1;1;
74880;PMS5003;63427;49.654;6.596;2022-09-21T16:40:53;1;1;
74880;PMS5003;63427;49.654;6.596;2022-09-21T16:43:19;1;1;
74880;PMS5003;63427;49.654;6.596;2022-09-21T16:45:44;1;1;
74880;PMS5003;63427;49.654;6.596;2022-09-21T16:48:11;1;1;
74880;PMS5003;63427;49.654;6.596;2022-09-21T16:50:34;1;1;
74880;PMS5003;63427;49.654;6.596;2022-09-21T16:52:59;0;0;
74880;PMS5003;63427;49.654;6.596;2022-09-21T16:55:24;1;1;
74880;PMS5003;63427;49.654;6.596;2022-09-21T16:57:49;1;1;
74880;PMS5003;63427;49.654;6.596;2022-09-21T17:00:15;1;1;
74880;PMS5003;63427;49.654;6.596;2022-09-21T17:02:39;1;0;
74880;PMS5003;63427;49.654;6.596;2022-09-21T17:05:04;2;2;
74880;PMS5003;63427;49.654;6.596;2022-09-21T17:09:54;2;2;
74880;PMS5003;63427;49.654;6.596;2022-09-21T17:12:19;1;1;
74880;PMS5003;63427;49.654;6.596;2022-09-21T17:14:44;2;2;
74880;PMS5003;63427;49.654;6.596;2022-09-21T17:17:11;2;2;
74880;PMS5003;63427;49.654;6.596;2022-09-21T17:19:35;1;1;
74880;PMS5003;63427;49.654;6.596;2022-09-21T17:22:03;2;2;
74880;PMS5003;63427;49.654;6.596;2022-09-21T17:24:28;1;1;
74880;PMS5003;63427;49.654;6.596;2022-09-21T17:26:50;2;2;
74880;PMS5003;63427;49.654;6.596;2022-09-21T17:29:20;2;2;
74880;PMS5003;63427;49.654;6.596;2022-09-21T17:34:07;10;9;
74880;PMS5003;63427;49.654;6.596;2022-09-21T17:36:31;21;19;
74880;PMS5003;63427;49.654;6.596;2022-09-21T17:38:57;39;36;
74880;PMS5003;63427;49.654;6.596;2022-09-21T17:41:23;50;42;
74880;PMS5003;63427;49.654;6.596;2022-09-21T17:43:52;51;49;
74880;PMS5003;63427;49.654;6.596;2022-09-21T17:46:15;35;34;
74880;PMS5003;63427;49.654;6.596;2022-09-21T17:48:39;14;13;
74880;PMS5003;63427;49.654;6.596;2022-09-21T17:51:05;6;6;
74880;PMS5003;63427;49.654;6.596;2022-09-21T17:53:30;3;3;
74880;PMS5003;63427;49.654;6.596;2022-09-21T17:55:55;5;5;
74880;PMS5003;63427;49.654;6.596;2022-09-21T18:00:48;2;2;
74880;PMS5003;63427;49.654;6.596;2022-09-21T18:03:16;4;4;
74880;PMS5003;63427;49.654;6.596;2022-09-21T18:05:36;4;4;
74880;PMS5003;63427;49.654;6.596;2022-09-21T18:08:07;5;5;
74880;PMS5003;63427;49.654;6.596;2022-09-21T18:10:30;2;2;
74880;PMS5003;63427;49.654;6.596;2022-09-21T18:15:18;3;3;
74880;PMS5003;63427;49.654;6.596;2022-09-21T18:22:36;4;4;
74880;PMS5003;63427;49.654;6.596;2022-09-21T18:24:59;3;3;
74880;PMS5003;63427;49.654;6.596;2022-09-21T18:27:25;2;2;
74880;PMS5003;63427;49.654;6.596;2022-09-21T18:29:50;2;2;
74880;PMS5003;63427;49.654;6.596;2022-09-21T18:32:21;3;3;
74880;PMS5003;63427;49.654;6.596;2022-09-21T18:34:47;2;1;
74880;PMS5003;63427;49.654;6.596;2022-09-21T18:37:08;2;2;
74880;PMS5003;63427;49.654;6.596;2022-09-21T18:39:33;4;4;
74880;PMS5003;63427;49.654;6.596;2022-09-21T18:42:02;4;3;
74880;PMS5003;63427;49.654;6.596;2022-09-21T18:44:24;2;2;
74880;PMS5003;63427;49.654;6.596;2022-09-21T18:49:15;2;2;
74880;PMS5003;63427;49.654;6.596;2022-09-21T18:51:40;3;3;
74880;PMS5003;63427;49.654;6.596;2022-09-21T18:54:03;2;2;
74880;PMS5003;63427;49.654;6.596;2022-09-21T18:56:30;2;2;
74880;PMS5003;63427;49.654;6.596;2022-09-21T18:58:54;1;1;
74880;PMS5003;63427;49.654;6.596;2022-09-21T19:01:20;2;2;
74880;PMS5003;63427;49.654;6.596;2022-09-21T19:03:46;1;1;
74880;PMS5003;63427;49.654;6.596;2022-09-21T19:06:18;1;1;
74880;PMS5003;63427;49.654;6.596;2022-09-21T19:08:38;2;2;
74880;PMS5003;63427;49.654;6.596;2022-09-21T19:11:03;2;2;
74880;PMS5003;63427;49.654;6.596;2022-09-21T19:15:55;4;4;
74880;PMS5003;63427;49.654;6.596;2022-09-21T19:18:22;4;4;
74880;PMS5003;63427;49.654;6.596;2022-09-21T19:20:48;3;3;
74880;PMS5003;63427;49.654;6.596;2022-09-21T19:23:12;2;2;
74880;PMS5003;63427;49.654;6.596;2022-09-21T19:28:03;3;3;
74880;PMS5003;63427;49.654;6.596;2022-09-21T19:32:52;4;4;
74880;PMS5003;63427;49.654;6.596;2022-09-21T19:35:18;4;4;
74880;PMS5003;63427;49.654;6.596;2022-09-21T19:37:49;3;3;
74880;PMS5003;63427;49.654;6.596;2022-09-21T19:40:08;4;4;
74880;PMS5003;63427;49.654;6.596;2022-09-21T19:42:48;3;3;
74880;PMS5003;63427;49.654;6.596;2022-09-21T19:47:26;1;1;
74880;PMS5003;63427;49.654;6.596;2022-09-21T19:49:50;2;2;